Huvudsida
METAR-TAF:

METAR-TAF

Flygplatser :

Ventspils lidosta

Ventspils, Lettland

latitud: 57-21-28N, longitud: 021-32-39E, höjd: 6 m

Aktuellt väderrapport

Denna rapport gjordes för 28 minuter sedan, klockan 19:20 UTC
Vind 7 kt från syd
Temperatur 1°C
Fuktighet 100%
Tryck 1015 hPa
Sikt 10 km eller mer
Få moln på en höjd av 1500 ft
Spridda moln på en höjd av 2200 ft
Brutna moln på en höjd av 2800 ft

METAR: EVVA 231920Z AUTO 17007KT 9999 FEW015 SCT022 BKN028 01/01 Q1015

Tid: 22:48 (19:48 UTC)

Väderprognos

Denna rapport gjordes för 2 timmar och 41 minuter sedan, klockan 17:07 UTC
Prognos gäller från 23 kl. 18 UTC till 24 kl. 03 UTC
Vind 10 kt från syd
Sikt 10 km eller mer
Brutna moln på en höjd av 2500 ft
Temporärt
från 23 kl. 20 UTC till 24 kl. 03 UTC
Sikt: 3000 m
Brutna moln på en höjd av 500 ft
Brutna moln på en höjd av 1000 ft, Cumulonimbus.
lätta regnskurar, snö,

TAF: EVVA 231707Z 2318/2403 18010KT 9999 BKN025 TEMPO 2320/2403 3000 -SHRASN BKN005 BKN010CB

Aktuella väderrapporter och prognoser från 4000 flygplatser (METAR- och TAF-rapporter).

De tillgängliga stationerna syns som gula och röda prickar på kartan.

För musen över prickarna för att se namnen på stationerna.

Klicka sedan för att få väderrapporter och prognoser.

För att ändra kartan: Klicka på de gröna knapparna med ett svart kors på för att zooma in; den gröna knappen med ett streck på för att zooma ut; eller på de gröna pilarna för angränsande kartor.


METAR-TAF: